createdAt,value
2018-04-19T00:00:12.103Z,102470.98
2018-04-19T00:02:41.210Z,102476.66
2018-04-19T00:05:09.934Z,102473.05
2018-04-19T00:07:39.057Z,102471.24
2018-04-19T00:10:07.393Z,102469.93
2018-04-19T00:12:35.746Z,102465.05
2018-04-19T00:15:04.485Z,102463.28
2018-04-19T00:17:32.865Z,102469.03
2018-04-19T00:20:01.204Z,102468.92
2018-04-19T00:22:29.547Z,102473.75
2018-04-19T00:24:57.910Z,102471.02
2018-04-19T00:27:26.243Z,102468.73
2018-04-19T00:29:54.598Z,102466.98
2018-04-19T00:32:22.941Z,102463.04
2018-04-19T00:34:51.925Z,102473.17
2018-04-19T00:37:21.035Z,102469.60
2018-04-19T00:39:50.139Z,102467.82
2018-04-19T00:42:18.513Z,102469.98
2018-04-19T00:44:46.905Z,102462.88
2018-04-19T00:47:15.655Z,102456.21
2018-04-19T00:49:43.998Z,102466.29
2018-04-19T00:52:13.133Z,102458.72
2018-04-19T00:54:41.496Z,102457.37
2018-04-19T00:57:10.216Z,102460.47
2018-04-19T00:59:39.356Z,102464.45
2018-04-19T01:02:08.121Z,102464.00
2018-04-19T01:04:36.509Z,102471.05
2018-04-19T01:07:04.836Z,102470.57
2018-04-19T01:09:33.168Z,102468.30
2018-04-19T01:12:01.534Z,102467.81
2018-04-19T01:14:30.618Z,102463.34
2018-04-19T01:16:59.741Z,102464.20
2018-04-19T01:19:28.056Z,102463.73
2018-04-19T01:21:56.378Z,102463.70
2018-04-19T01:24:25.132Z,102465.01
2018-04-19T01:26:54.225Z,102464.53
2018-04-19T01:29:22.582Z,102465.37
2018-04-19T01:31:51.662Z,102461.32
2018-04-19T01:34:20.411Z,102462.61
2018-04-19T01:36:49.167Z,102465.65
2018-04-19T01:39:17.553Z,102461.19
2018-04-19T01:41:45.902Z,102462.52
2018-04-19T01:44:14.633Z,102465.61
2018-04-19T01:46:43.752Z,102460.80
2018-04-19T01:49:12.113Z,102458.11
2018-04-19T01:51:40.445Z,102456.69
2018-04-19T01:54:09.651Z,102460.64
2018-04-19T01:56:38.767Z,102458.41
2018-04-19T01:59:07.540Z,102456.21
2018-04-19T02:01:35.897Z,102459.34
2018-04-19T02:04:05.025Z,102459.30
2018-04-19T02:06:34.174Z,102464.98
2018-04-19T02:09:02.497Z,102458.75
2018-04-19T02:11:31.620Z,102456.97
2018-04-19T02:13:59.930Z,102454.74
2018-04-19T02:16:29.065Z,102450.33
2018-04-19T02:18:57.389Z,102456.02
2018-04-19T02:21:25.727Z,102444.55
2018-04-19T02:23:54.056Z,102453.37
2018-04-19T02:26:23.168Z,102442.31
2018-04-19T02:28:52.285Z,102441.38
2018-04-19T02:31:21.424Z,102438.25
2018-04-19T02:33:50.553Z,102439.08
2018-04-19T02:36:19.671Z,102439.94
2018-04-19T02:38:48.038Z,102432.84
2018-04-19T02:41:16.802Z,102428.86
2018-04-19T02:43:45.542Z,102432.00
2018-04-19T02:46:15.182Z,102430.68
2018-04-19T02:48:44.499Z,102428.88
2018-04-19T02:51:13.228Z,102428.84
2018-04-19T02:53:42.413Z,102431.47
2018-04-19T02:56:10.784Z,102429.31
2018-04-19T02:58:39.801Z,102424.00
2018-04-19T03:01:09.760Z,102427.00
2018-04-19T03:03:39.236Z,102423.88
2018-04-19T03:06:08.344Z,102424.70
2018-04-19T03:08:36.708Z,102419.00
2018-04-19T03:11:05.134Z,102412.40
2018-04-19T03:13:34.311Z,102411.52
2018-04-19T03:16:03.508Z,102421.52
2018-04-19T03:18:32.008Z,102425.81
2018-04-19T03:21:00.824Z,102424.84
2018-04-19T03:23:29.604Z,102423.95
2018-04-19T03:25:58.367Z,102423.94
2018-04-19T03:28:27.606Z,102429.14
2018-04-19T03:30:55.922Z,102423.47
2018-04-19T03:33:25.714Z,102426.89
2018-04-19T03:35:54.074Z,102432.50
2018-04-19T03:38:22.483Z,102431.16
2018-04-19T03:40:52.217Z,102429.03
2018-04-19T03:43:21.042Z,102431.98
2018-04-19T03:45:49.485Z,102427.06
2018-04-19T03:48:18.716Z,102430.95
2018-04-19T03:50:47.162Z,102429.66
2018-04-19T03:53:17.058Z,102434.13
2018-04-19T03:55:46.178Z,102436.86
2018-04-19T03:58:15.242Z,102434.27
2018-04-19T04:00:43.604Z,102436.39
2018-04-19T04:03:11.918Z,102436.33
2018-04-19T04:05:40.272Z,102445.93
2018-04-19T04:08:10.139Z,102448.09
2018-04-19T04:10:38.503Z,102446.42
2018-04-19T04:13:07.651Z,102452.20
2018-04-19T04:15:36.068Z,102444.38
2018-04-19T04:18:23.854Z,102455.05
2018-04-19T04:21:18.996Z,102445.87
2018-04-19T04:23:53.988Z,102449.03
2018-04-19T04:26:23.071Z,102449.48
2018-04-19T04:28:51.472Z,102450.77
2018-04-19T04:31:19.846Z,102452.56
2018-04-19T04:33:48.572Z,102452.21
2018-04-19T04:36:17.711Z,102451.36
2018-04-19T04:38:46.474Z,102459.41
2018-04-19T04:41:14.812Z,102465.25
2018-04-19T04:43:43.564Z,102465.34
2018-04-19T04:46:12.675Z,102468.09
2018-04-19T04:48:41.038Z,102462.50
2018-04-19T04:51:09.404Z,102470.10
2018-04-19T04:53:38.142Z,102468.48
2018-04-19T04:56:06.579Z,102468.59
2018-04-19T04:58:34.927Z,102478.02
2018-04-19T05:01:04.066Z,102467.11
2018-04-19T05:03:33.149Z,102461.47
2018-04-19T05:06:01.905Z,102465.55
2018-04-19T05:08:31.039Z,102468.30
2018-04-19T05:10:59.427Z,102470.14
2018-04-19T05:13:27.802Z,102475.08
2018-04-19T05:15:56.886Z,102470.30
2018-04-19T05:18:25.271Z,102463.77
2018-04-19T05:20:54.372Z,102468.29
2018-04-19T05:23:22.687Z,102464.84
2018-04-19T05:25:51.837Z,102467.58
2018-04-19T05:28:20.223Z,102471.61
2018-04-19T05:30:48.593Z,102472.11
2018-04-19T05:33:16.942Z,102470.84
2018-04-19T05:35:46.062Z,102469.17
2018-04-19T05:38:14.794Z,102467.45
2018-04-19T05:40:44.295Z,102468.83
2018-04-19T05:43:12.642Z,102470.19
2018-04-19T05:45:42.982Z,102462.27
2018-04-19T05:48:12.365Z,102461.87
2018-04-19T05:50:42.319Z,102459.25
2018-04-19T05:53:12.034Z,102460.14
2018-04-19T05:55:40.814Z,102466.81
2018-04-19T05:58:09.153Z,102465.04
2018-04-19T06:00:47.994Z,102464.17
2018-04-19T06:03:16.312Z,102468.14
2018-04-19T06:05:45.814Z,102465.08
2018-04-19T06:08:14.142Z,102463.72
2018-04-19T06:10:42.895Z,102460.17
2018-04-19T06:13:12.011Z,102467.66
2018-04-19T06:15:40.360Z,102466.28
2018-04-19T06:18:10.238Z,102466.66
2018-04-19T06:20:38.986Z,102469.25
2018-04-19T06:23:07.330Z,102467.43
2018-04-19T06:25:36.472Z,102463.38
2018-04-19T06:28:04.825Z,102463.77
2018-04-19T06:30:33.942Z,102466.38
2018-04-19T06:33:02.323Z,102463.64
2018-04-19T06:35:30.641Z,102460.43
2018-04-19T06:37:59.764Z,102461.67
2018-04-19T06:40:28.528Z,102456.64
2018-04-19T06:42:57.645Z,102452.50
2018-04-19T06:45:26.006Z,102455.95
2018-04-19T06:47:55.136Z,102458.08
2018-04-19T06:50:23.520Z,102448.15
2018-04-19T06:52:53.394Z,102450.20
2018-04-19T06:55:22.882Z,102448.31
2018-04-19T06:57:51.243Z,102455.31
2018-04-19T07:00:19.602Z,102452.06
2018-04-19T07:02:47.986Z,102451.00
2018-04-19T07:05:16.348Z,102445.50
2018-04-19T07:07:44.730Z,102445.38
2018-04-19T07:10:13.268Z,102446.09
2018-04-19T07:12:42.376Z,102448.59
2018-04-19T07:15:11.457Z,102447.06
2018-04-19T07:17:40.602Z,102446.41
2018-04-19T07:20:08.966Z,102444.00
2018-04-19T07:22:37.342Z,102452.72
2018-04-19T07:25:05.652Z,102451.59
2018-04-19T07:27:33.986Z,102450.91
2018-04-19T07:30:02.329Z,102452.92
2018-04-19T07:32:30.687Z,102447.34
2018-04-19T07:34:59.059Z,102449.39
2018-04-19T07:37:27.388Z,102455.92
2018-04-19T07:39:56.530Z,102447.94
2018-04-19T07:42:24.841Z,102455.73
2018-04-19T07:44:53.217Z,102461.27
2018-04-19T07:47:22.321Z,102465.00
2018-04-19T07:49:51.445Z,102455.90
2018-04-19T07:52:19.797Z,102461.55
2018-04-19T07:54:48.904Z,102457.80
2018-04-19T07:57:17.259Z,102460.44
2018-04-19T07:59:45.614Z,102458.86
2018-04-19T08:02:13.979Z,102460.30
2018-04-19T08:04:42.369Z,102458.66
2018-04-19T08:07:10.709Z,102465.73
2018-04-19T08:09:39.053Z,102466.61
2018-04-19T08:12:08.039Z,102461.67
2018-04-19T08:14:36.368Z,102466.94
2018-04-19T08:17:04.702Z,102473.53
2018-04-19T08:19:33.050Z,102477.63
2018-04-19T08:22:01.373Z,102467.98
2018-04-19T08:24:29.770Z,102469.53
2018-04-19T08:26:58.060Z,102476.07
2018-04-19T08:29:26.370Z,102476.55
2018-04-19T08:31:54.745Z,102474.91
2018-04-19T08:34:23.064Z,102475.55
2018-04-19T08:36:51.413Z,102483.34
2018-04-19T08:39:20.511Z,102481.36
2018-04-19T08:41:49.669Z,102475.82
2018-04-19T08:44:18.001Z,102478.36
2018-04-19T08:46:47.079Z,102472.67
2018-04-19T08:49:16.229Z,102481.05
2018-04-19T08:51:44.637Z,102474.63
2018-04-19T08:54:12.965Z,102471.62
2018-04-19T08:56:41.332Z,102474.27
2018-04-19T08:59:10.431Z,102469.33
2018-04-19T09:01:38.764Z,102474.88
2018-04-19T09:04:07.125Z,102474.20
2018-04-19T09:06:35.461Z,102477.13
2018-04-19T09:09:03.839Z,102471.30
2018-04-19T09:11:32.149Z,102472.20
2018-04-19T09:14:00.505Z,102474.45
2018-04-19T09:16:28.835Z,102470.69
2018-04-19T09:18:57.197Z,102472.23
2018-04-19T09:21:25.533Z,102471.97
2018-04-19T09:23:53.889Z,102471.40
2018-04-19T09:26:23.003Z,102479.00
2018-04-19T09:28:51.314Z,102480.57
2018-04-19T09:31:19.663Z,102481.25
2018-04-19T09:33:48.799Z,102478.53
2018-04-19T09:36:17.174Z,102482.63
2018-04-19T09:38:45.543Z,102481.64
2018-04-19T09:41:13.871Z,102477.61
2018-04-19T09:43:42.253Z,102476.08
2018-04-19T09:46:10.575Z,102481.33
2018-04-19T09:48:38.923Z,102474.48
2018-04-19T09:51:07.257Z,102473.81
2018-04-19T09:53:35.640Z,102465.73
2018-04-19T09:56:03.972Z,102466.20
2018-04-19T09:58:32.301Z,102469.69
2018-04-19T10:01:06.862Z,102467.15
2018-04-19T10:03:40.710Z,102463.88
2018-04-19T10:06:09.061Z,102462.46
2018-04-19T10:08:37.365Z,102450.02
2018-04-19T10:11:05.731Z,102457.41
2018-04-19T10:13:38.207Z,102458.47
2018-04-19T10:16:07.460Z,102461.16
2018-04-19T10:18:35.795Z,102459.62
2018-04-19T10:21:04.189Z,102461.48
2018-04-19T10:23:32.527Z,102461.48
2018-04-19T10:26:00.849Z,102454.50
2018-04-19T10:28:29.976Z,102456.13
2018-04-19T10:30:58.300Z,102453.17
2018-04-19T10:33:26.643Z,102455.35
2018-04-19T10:35:54.972Z,102445.81
2018-04-19T10:38:24.105Z,102443.12
2018-04-19T10:40:52.422Z,102445.33
2018-04-19T10:43:20.825Z,102439.80
2018-04-19T10:45:49.936Z,102444.34
2018-04-19T10:48:19.732Z,102438.66
2018-04-19T10:50:48.843Z,102441.26
2018-04-19T10:53:17.921Z,102433.83
2018-04-19T10:55:46.296Z,102434.60
2018-04-19T10:58:14.625Z,102426.80
2018-04-19T11:00:43.713Z,102422.21
2018-04-19T11:03:12.081Z,102419.98
2018-04-19T11:05:40.418Z,102416.12
2018-04-19T11:08:08.805Z,102420.69
2018-04-19T11:10:38.240Z,102409.67
2018-04-19T11:13:06.565Z,102412.63
2018-04-19T11:15:34.932Z,102408.22
2018-04-19T11:18:03.277Z,102407.70
2018-04-19T11:20:31.615Z,102404.89
2018-04-19T11:23:00.740Z,102401.97
2018-04-19T11:25:29.049Z,102405.95
2018-04-19T11:27:57.398Z,102402.30
2018-04-19T11:30:25.741Z,102398.58
2018-04-19T11:32:54.053Z,102393.00
2018-04-19T11:35:23.210Z,102390.22
2018-04-19T11:37:51.594Z,102388.03
2018-04-19T11:40:20.798Z,102385.04
2018-04-19T11:42:49.885Z,102384.05
2018-04-19T11:45:19.002Z,102391.30
2018-04-19T11:47:47.316Z,102387.69
2018-04-19T11:50:16.438Z,102380.42
2018-04-19T11:52:44.789Z,102374.47
2018-04-19T11:55:13.166Z,102369.30
2018-04-19T11:57:41.553Z,102366.78
2018-04-19T12:00:09.873Z,102365.26
2018-04-19T12:02:38.989Z,102362.59
2018-04-19T12:05:07.303Z,102365.05
2018-04-19T12:07:35.676Z,102363.70
2018-04-19T12:10:04.010Z,102364.70
2018-04-19T12:12:33.120Z,102364.41
2018-04-19T12:15:01.484Z,102361.70
2018-04-19T12:17:30.211Z,102359.13
2018-04-19T12:19:59.707Z,102352.78
2018-04-19T12:22:28.432Z,102351.23
2018-04-19T12:24:57.148Z,102348.77
2018-04-19T12:27:26.269Z,102342.88
2018-04-19T12:29:55.743Z,102343.56
2018-04-19T12:32:24.912Z,102342.09
2018-04-19T12:34:53.295Z,102342.31
2018-04-19T12:37:21.630Z,102342.50
2018-04-19T12:39:50.796Z,102337.23
2018-04-19T12:42:19.930Z,102328.37
2018-04-19T12:44:48.300Z,102330.04
2018-04-19T12:47:16.675Z,102329.13
2018-04-19T12:49:45.031Z,102323.32
2018-04-19T12:52:13.383Z,102326.98
2018-04-19T12:54:42.503Z,102320.27
2018-04-19T12:57:10.850Z,102315.27
2018-04-19T12:59:39.224Z,102310.97
2018-04-19T13:02:07.556Z,102309.72
2018-04-19T13:04:35.920Z,102306.55
2018-04-19T13:07:04.247Z,102308.48
2018-04-19T13:09:32.628Z,102302.56
2018-04-19T13:12:01.002Z,102303.16
2018-04-19T13:14:29.356Z,102289.06
2018-04-19T13:16:57.732Z,102292.02
2018-04-19T13:19:26.103Z,102292.99
2018-04-19T13:21:55.290Z,102278.61
2018-04-19T13:24:23.631Z,102279.31
2018-04-19T13:26:51.988Z,102274.75
2018-04-19T13:29:20.335Z,102274.98
2018-04-19T13:31:48.710Z,102272.08
2018-04-19T13:34:17.103Z,102262.76
2018-04-19T13:36:45.443Z,102260.87
2018-04-19T13:39:13.792Z,102253.47
2018-04-19T13:41:42.155Z,102251.64
2018-04-19T13:44:10.904Z,102247.09
2018-04-19T13:46:39.637Z,102251.01
2018-04-19T13:49:08.015Z,102254.66
2018-04-19T13:51:36.334Z,102245.84
2018-04-19T13:54:04.664Z,102241.23
2018-04-19T13:56:33.079Z,102243.48
2018-04-19T13:59:02.169Z,102239.40
2018-04-19T14:01:30.566Z,102230.71
2018-04-19T14:03:58.901Z,102232.66
2018-04-19T14:06:28.000Z,102234.20
2018-04-19T14:08:56.338Z,102228.52
2018-04-19T14:11:24.821Z,102225.32
2018-04-19T14:13:53.304Z,102226.25
2018-04-19T14:16:23.911Z,102219.13
2018-04-19T14:18:52.383Z,102213.94
2018-04-19T14:21:20.747Z,102222.58
2018-04-19T14:23:49.849Z,102214.18
2018-04-19T14:26:18.228Z,102212.06
2018-04-19T14:28:46.552Z,102207.91
2018-04-19T14:31:15.521Z,102201.70
2018-04-19T14:33:43.972Z,102202.09
2018-04-19T14:36:13.160Z,102198.91
2018-04-19T14:38:42.931Z,102194.41
2018-04-19T14:41:11.307Z,102192.77
2018-04-19T14:43:39.695Z,102190.55
2018-04-19T14:46:10.215Z,102192.30
2018-04-19T14:48:38.591Z,102190.06
2018-04-19T14:51:07.011Z,102192.58
2018-04-19T14:53:36.130Z,102200.66
2018-04-19T14:56:04.447Z,102185.09
2018-04-19T14:58:33.746Z,102189.55
2018-04-19T15:01:02.319Z,102185.46
2018-04-19T15:03:30.664Z,102179.84
2018-04-19T15:05:59.090Z,102179.11
2018-04-19T15:08:27.409Z,102184.70
2018-04-19T15:10:56.666Z,102186.56
2018-04-19T15:13:25.058Z,102180.61
2018-04-19T15:15:54.414Z,102182.83
2018-04-19T15:18:22.818Z,102184.70
2018-04-19T15:20:51.330Z,102182.72
2018-04-19T15:23:19.987Z,102182.20
2018-04-19T15:25:49.838Z,102180.67
2018-04-19T15:28:18.972Z,102174.79
2018-04-19T15:30:47.853Z,102174.39
2018-04-19T15:33:16.288Z,102180.34
2018-04-19T15:35:44.624Z,102176.33
2018-04-19T15:38:13.175Z,102173.00
2018-04-19T15:40:41.596Z,102169.27
2018-04-19T15:43:09.914Z,102172.74
2018-04-19T15:45:38.245Z,102170.77
2018-04-19T15:48:06.649Z,102176.14
2018-04-19T15:50:35.030Z,102166.09
2018-04-19T15:53:04.162Z,102164.38
2018-04-19T15:55:32.494Z,102160.83
2018-04-19T15:58:01.277Z,102161.48
2018-04-19T16:00:29.572Z,102159.25
2018-04-19T16:02:58.063Z,102160.42
2018-04-19T16:05:26.767Z,102153.52
2018-04-19T16:07:55.359Z,102151.33
2018-04-19T16:10:23.711Z,102156.77
2018-04-19T16:12:52.371Z,102145.03
2018-04-19T16:15:20.695Z,102148.84
2018-04-19T16:17:49.087Z,102148.36
2018-04-19T16:22:55.867Z,102143.36
2018-04-19T16:25:24.478Z,102144.99
2018-04-19T16:27:52.833Z,102139.88
2018-04-19T16:30:21.277Z,102140.50
2018-04-19T16:32:49.604Z,102142.25
2018-04-19T16:35:18.351Z,102141.66
2018-04-19T16:37:47.850Z,102139.86
2018-04-19T16:40:16.187Z,102122.09
2018-04-19T16:42:44.530Z,102135.33
2018-04-19T16:45:14.035Z,102133.28
2018-04-19T16:47:42.451Z,102135.22
2018-04-19T16:50:10.951Z,102138.74
2018-04-19T16:52:55.654Z,102137.09
2018-04-19T16:55:24.040Z,102131.84
2018-04-19T16:57:52.383Z,102137.05
2018-04-19T17:00:22.238Z,102138.00
2018-04-19T17:02:51.720Z,102135.60
2018-04-19T17:05:20.121Z,102132.74
2018-04-19T17:07:49.218Z,102131.67
2018-04-19T17:10:17.562Z,102138.20
2018-04-19T17:12:47.090Z,102133.00
2018-04-19T17:15:15.441Z,102136.52
2018-04-19T17:17:44.571Z,102139.33
2018-04-19T17:20:12.944Z,102132.58
2018-04-19T17:22:41.397Z,102137.97
2018-04-19T17:25:10.687Z,102132.84
2018-04-19T17:27:39.026Z,102136.62
2018-04-19T17:30:07.387Z,102139.03
2018-04-19T17:32:35.741Z,102139.08
2018-04-19T17:35:04.874Z,102137.07
2018-04-19T17:37:33.200Z,102143.52
2018-04-19T17:40:03.486Z,102143.69
2018-04-19T17:42:31.982Z,102145.98
2018-04-19T17:45:00.354Z,102144.41
2018-04-19T17:47:29.123Z,102143.02
2018-04-19T17:49:58.796Z,102144.02
2018-04-19T17:52:27.208Z,102140.91
2018-04-19T17:54:55.581Z,102143.72
2018-04-19T17:57:24.079Z,102137.20
2018-04-19T17:59:53.258Z,102142.38
2018-04-19T18:02:22.234Z,102145.55
2018-04-19T18:04:51.555Z,102143.56
2018-04-19T18:07:19.913Z,102142.88
2018-04-19T18:09:48.279Z,102139.92
2018-04-19T18:12:17.448Z,102147.75
2018-04-19T18:14:46.173Z,102147.08
2018-04-19T18:17:14.527Z,102149.02
2018-04-19T18:19:43.678Z,102150.73
2018-04-19T18:22:12.773Z,102152.20
2018-04-19T18:24:41.138Z,102152.72
2018-04-19T18:27:09.486Z,102156.18
2018-04-19T18:29:38.619Z,102155.98
2018-04-19T18:32:07.746Z,102152.56
2018-04-19T18:34:36.921Z,102158.91
2018-04-19T18:37:05.912Z,102159.88
2018-04-19T18:39:34.279Z,102158.14
2018-04-19T18:42:03.399Z,102159.83
2018-04-19T18:44:31.792Z,102161.14
2018-04-19T18:47:00.585Z,102158.89
2018-04-19T18:49:28.979Z,102159.81
2018-04-19T18:51:58.059Z,102162.63
2018-04-19T18:54:26.433Z,102169.23
2018-04-19T18:56:55.253Z,102169.37
2018-04-19T18:59:24.054Z,102170.30
2018-04-19T19:01:52.461Z,102172.69
2018-04-19T19:04:20.833Z,102175.84
2018-04-19T19:06:49.336Z,102174.73
2018-04-19T19:09:18.141Z,102178.13
2018-04-19T19:11:47.134Z,102180.76
2018-04-19T19:14:16.282Z,102178.74
2018-04-19T19:16:44.731Z,102168.19
2018-04-19T19:19:30.622Z,102175.16
2018-04-19T19:21:59.010Z,102178.50
2018-04-19T19:24:27.368Z,102166.44
2018-04-19T19:26:56.917Z,102172.55
2018-04-19T19:29:26.130Z,102169.63
2018-04-19T19:31:54.868Z,102170.51
2018-04-19T19:34:24.007Z,102163.91
2018-04-19T19:36:52.465Z,102171.97
2018-04-19T19:39:22.421Z,102168.19
2018-04-19T19:41:50.783Z,102171.75
2018-04-19T19:44:19.220Z,102174.20
2018-04-19T19:46:48.010Z,102167.78
2018-04-19T19:49:17.237Z,102171.31
2018-04-19T19:51:45.795Z,102172.20
2018-04-19T19:54:14.186Z,102175.13
2018-04-19T19:56:43.427Z,102168.61
2018-04-19T19:59:11.758Z,102169.64
2018-04-19T20:01:41.652Z,102179.02
2018-04-19T20:04:10.720Z,102170.24
2018-04-19T20:06:40.612Z,102169.84
2018-04-19T20:09:08.933Z,102170.55
2018-04-19T20:11:38.027Z,102172.22
2018-04-19T20:14:07.157Z,102169.94
2018-04-19T20:16:36.325Z,102166.83
2018-04-19T20:19:04.672Z,102165.06
2018-04-19T20:21:33.041Z,102161.67
2018-04-19T20:24:02.858Z,102159.14
2018-04-19T20:26:31.216Z,102162.72
2018-04-19T20:28:59.956Z,102164.20
2018-04-19T20:31:29.084Z,102157.84
2018-04-19T20:33:57.442Z,102150.02
2018-04-19T20:36:26.165Z,102153.81
2018-04-19T20:38:55.339Z,102149.68
2018-04-19T20:41:23.688Z,102150.20
2018-04-19T20:43:52.812Z,102150.30
2018-04-19T20:46:21.979Z,102143.30
2018-04-19T20:48:51.119Z,102151.50
2018-04-19T20:51:19.493Z,102146.01
2018-04-19T20:53:47.830Z,102148.02
2018-04-19T20:56:16.603Z,102148.59
2018-04-19T20:58:44.930Z,102144.31
2018-04-19T21:01:13.318Z,102143.59
2018-04-19T21:03:41.703Z,102151.72
2018-04-19T21:06:10.032Z,102152.62
2018-04-19T21:08:38.390Z,102150.91
2018-04-19T21:11:07.877Z,102152.31
2018-04-19T21:13:36.246Z,102154.16
2018-04-19T21:16:04.697Z,102154.73
2018-04-19T21:18:33.032Z,102154.80
2018-04-19T21:21:02.173Z,102147.81
2018-04-19T21:23:30.881Z,102157.90
2018-04-19T21:26:00.007Z,102158.45
2018-04-19T21:28:29.103Z,102155.94
2018-04-19T21:30:58.258Z,102150.69
2018-04-19T21:33:26.601Z,102151.61
2018-04-19T21:35:55.028Z,102152.68
2018-04-19T21:38:23.365Z,102149.07
2018-04-19T21:40:51.714Z,102150.47
2018-04-19T21:43:20.502Z,102144.12
2018-04-19T21:45:49.666Z,102141.81
2018-04-19T21:48:18.017Z,102148.45
2018-04-19T21:50:46.402Z,102139.28
2018-04-19T21:53:15.555Z,102138.88
2018-04-19T21:55:44.670Z,102140.30
2018-04-19T21:58:13.442Z,102140.30
2018-04-19T22:00:41.802Z,102135.56
2018-04-19T22:03:10.185Z,102131.34
2018-04-19T22:05:38.606Z,102132.22
2018-04-19T22:08:06.950Z,102129.61
2018-04-19T22:10:36.065Z,102126.02
2018-04-19T22:13:04.453Z,102128.70
2018-04-19T22:15:32.793Z,102122.64
2018-04-19T22:18:01.181Z,102127.84
2018-04-19T22:20:30.281Z,102130.59
2018-04-19T22:22:59.433Z,102127.08
2018-04-19T22:25:27.816Z,102126.66
2018-04-19T22:27:56.153Z,102124.67
2018-04-19T22:30:24.534Z,102128.84
2018-04-19T22:32:53.661Z,102126.75
2018-04-19T22:35:22.017Z,102125.78
2018-04-19T22:37:50.417Z,102121.52
2018-04-19T22:40:18.797Z,102116.67
2018-04-19T22:42:47.145Z,102118.24
2018-04-19T22:45:15.492Z,102118.85
2018-04-19T22:47:44.629Z,102113.62
2018-04-19T22:50:13.773Z,102117.01
2018-04-19T22:52:42.562Z,102108.42
2018-04-19T22:55:10.901Z,102114.67
2018-04-19T22:57:39.250Z,102107.25
2018-04-19T23:00:07.653Z,102113.17
2018-04-19T23:02:35.995Z,102107.94
2018-04-19T23:05:05.110Z,102107.48
2018-04-19T23:07:33.497Z,102104.13
2018-04-19T23:10:02.253Z,102105.95
2018-04-19T23:12:31.409Z,102104.52
2018-04-19T23:14:59.803Z,102105.31
2018-04-19T23:17:28.149Z,102107.30
2018-04-19T23:19:56.545Z,102106.38
2018-04-19T23:22:35.560Z,102104.98
2018-04-19T23:25:03.957Z,102102.73
2018-04-19T23:27:32.350Z,102095.66
2018-04-19T23:30:00.713Z,102099.95
2018-04-19T23:32:29.060Z,102097.87
2018-04-19T23:34:57.404Z,102096.19
2018-04-19T23:37:25.917Z,102091.42
2018-04-19T23:39:55.009Z,102090.66
2018-04-19T23:42:23.750Z,102094.31
2018-04-19T23:44:52.935Z,102088.89
2018-04-19T23:47:21.268Z,102091.11
2018-04-19T23:49:49.616Z,102084.30
2018-04-19T23:52:18.773Z,102077.58
2018-04-19T23:54:47.125Z,102045.84
2018-04-19T23:57:15.566Z,102081.63
2018-04-19T23:59:44.695Z,102082.08
